createdAt,value
2023-05-25T00:02:07.483Z,1.38
2023-05-25T00:04:37.138Z,2.17
2023-05-25T00:07:05.985Z,1.30
2023-05-25T00:09:36.687Z,2.00
2023-05-25T00:12:06.223Z,1.27
2023-05-25T00:14:34.749Z,1.80
2023-05-25T00:17:04.428Z,1.95
2023-05-25T00:19:34.297Z,1.65
2023-05-25T00:22:03.530Z,2.65
2023-05-25T00:24:32.660Z,1.67
2023-05-25T00:27:02.668Z,2.17
2023-05-25T00:29:31.137Z,3.60
2023-05-25T00:31:59.489Z,3.40
2023-05-25T00:34:27.884Z,1.92
2023-05-25T00:36:56.473Z,1.65
2023-05-25T00:39:24.760Z,3.20
2023-05-25T00:41:53.132Z,2.80
2023-05-25T00:44:22.911Z,2.97
2023-05-25T00:46:53.050Z,2.85
2023-05-25T00:49:23.941Z,2.97
2023-05-25T00:51:54.102Z,2.57
2023-05-25T00:54:22.828Z,2.80
2023-05-25T00:56:54.386Z,3.10
2023-05-25T00:59:31.113Z,2.10
2023-05-25T01:02:04.960Z,1.77
2023-05-25T01:04:36.156Z,2.35
2023-05-25T01:07:06.500Z,1.95
2023-05-25T01:09:36.404Z,1.97
2023-05-25T01:12:05.220Z,3.22
2023-05-25T01:14:36.485Z,1.85
2023-05-25T01:17:05.040Z,2.47
2023-05-25T01:19:37.538Z,2.13
2023-05-25T01:22:13.612Z,1.60
2023-05-25T01:24:46.133Z,3.95
2023-05-25T01:27:18.476Z,1.30
2023-05-25T01:29:48.334Z,1.63
2023-05-25T01:32:19.458Z,1.83
2023-05-25T01:34:49.956Z,2.07
2023-05-25T01:37:23.570Z,1.67
2023-05-25T01:39:51.967Z,1.60
2023-05-25T01:42:20.498Z,4.60
2023-05-25T01:44:49.242Z,2.00
2023-05-25T01:47:23.456Z,2.47
2023-05-25T01:49:59.592Z,1.98
2023-05-25T01:52:33.874Z,2.55
2023-05-25T01:55:06.923Z,2.17
2023-05-25T01:57:39.055Z,2.87
2023-05-25T02:00:11.055Z,1.65
2023-05-25T02:02:42.486Z,2.08
2023-05-25T02:05:11.611Z,2.08
2023-05-25T02:07:41.752Z,3.50
2023-05-25T02:10:10.981Z,2.92
2023-05-25T02:12:39.450Z,3.30
2023-05-25T02:15:08.877Z,2.50
2023-05-25T02:17:37.475Z,2.20
2023-05-25T02:20:07.048Z,2.17
2023-05-25T02:22:37.625Z,2.00
2023-05-25T02:25:09.327Z,2.75
2023-05-25T02:27:37.762Z,2.03
2023-05-25T02:30:07.352Z,1.38
2023-05-25T02:32:36.151Z,2.20
2023-05-25T02:35:04.601Z,1.30
2023-05-25T02:37:32.918Z,1.58
2023-05-25T02:40:01.365Z,1.37
2023-05-25T02:42:31.023Z,1.57
2023-05-25T02:44:59.483Z,2.60
2023-05-25T02:47:27.901Z,2.20
2023-05-25T02:49:56.376Z,1.80
2023-05-25T02:52:25.872Z,4.77
2023-05-25T02:54:54.232Z,1.43
2023-05-25T02:57:23.270Z,1.37
2023-05-25T02:59:53.006Z,1.40
2023-05-25T03:02:25.686Z,1.90
2023-05-25T03:04:55.014Z,2.47
2023-05-25T03:07:25.650Z,2.13
2023-05-25T03:09:54.296Z,1.60
2023-05-25T03:12:22.676Z,1.77
2023-05-25T03:14:52.496Z,1.20
2023-05-25T03:17:20.851Z,1.90
2023-05-25T03:19:49.369Z,3.73
2023-05-25T03:22:17.690Z,3.63
2023-05-25T03:24:46.829Z,1.70
2023-05-25T03:27:15.142Z,1.93
2023-05-25T03:29:43.509Z,1.57
2023-05-25T03:32:13.494Z,1.80
2023-05-25T03:34:42.890Z,1.60
2023-05-25T03:37:11.252Z,2.63
2023-05-25T03:39:39.580Z,1.57
2023-05-25T03:42:08.542Z,1.27
2023-05-25T03:44:37.534Z,3.30
2023-05-25T03:47:07.389Z,4.70
2023-05-25T03:49:37.141Z,2.57
2023-05-25T03:52:06.412Z,4.50
2023-05-25T03:54:34.925Z,3.27
2023-05-25T03:57:03.952Z,2.57
2023-05-25T03:59:32.710Z,2.33
2023-05-25T04:02:00.931Z,2.17
2023-05-25T04:04:30.140Z,1.77
2023-05-25T04:06:59.916Z,2.50
2023-05-25T04:09:28.286Z,1.47
2023-05-25T04:11:56.572Z,5.57
2023-05-25T04:14:24.835Z,1.00
2023-05-25T04:16:53.660Z,1.43
2023-05-25T04:19:21.960Z,2.77
2023-05-25T04:21:50.231Z,2.00
2023-05-25T04:24:19.976Z,1.17
2023-05-25T04:26:48.460Z,1.03
2023-05-25T04:29:16.783Z,2.10
2023-05-25T04:31:46.023Z,2.47
2023-05-25T04:34:15.412Z,3.33
2023-05-25T04:36:45.013Z,3.27
2023-05-25T04:39:13.395Z,3.43
2023-05-25T04:41:43.291Z,3.97
2023-05-25T04:44:11.676Z,3.10
2023-05-25T04:46:40.877Z,4.37
2023-05-25T04:49:10.163Z,2.37
2023-05-25T04:51:38.673Z,2.73
2023-05-25T04:54:07.506Z,2.80
2023-05-25T04:56:35.841Z,4.70
2023-05-25T04:59:06.535Z,6.30
2023-05-25T05:01:40.965Z,5.70
2023-05-25T05:04:09.863Z,4.70
2023-05-25T05:06:38.269Z,5.83
2023-05-25T05:09:06.705Z,5.17
2023-05-25T05:11:35.119Z,3.50
2023-05-25T05:14:03.477Z,5.23
2023-05-25T05:16:35.333Z,4.87
2023-05-25T05:19:04.190Z,2.63
2023-05-25T05:21:32.709Z,4.23
2023-05-25T05:24:01.231Z,5.13
2023-05-25T05:26:30.622Z,3.37
2023-05-25T05:28:59.974Z,3.50
2023-05-25T05:31:29.597Z,5.27
2023-05-25T05:33:59.649Z,3.08
2023-05-25T05:36:29.968Z,5.10
2023-05-25T05:38:58.260Z,4.80
2023-05-25T05:41:27.631Z,4.53
2023-05-25T05:43:56.757Z,5.85
2023-05-25T05:46:25.094Z,4.68
2023-05-25T05:48:53.516Z,6.55
2023-05-25T05:51:23.277Z,6.47
2023-05-25T05:53:51.810Z,4.22
2023-05-25T05:56:20.758Z,4.20
2023-05-25T05:58:50.081Z,4.93
2023-05-25T06:01:18.512Z,5.78
2023-05-25T06:03:47.706Z,5.95
2023-05-25T06:06:16.672Z,6.07
2023-05-25T06:08:47.507Z,4.13
2023-05-25T06:11:15.989Z,5.53
2023-05-25T06:13:45.488Z,6.65
2023-05-25T06:16:15.051Z,5.75
2023-05-25T06:18:43.448Z,4.38
2023-05-25T06:21:12.869Z,5.28
2023-05-25T06:23:41.500Z,7.28
2023-05-25T06:26:11.284Z,6.57
2023-05-25T06:28:39.592Z,4.60
2023-05-25T06:31:07.968Z,4.10
2023-05-25T06:33:36.369Z,6.18
2023-05-25T06:36:05.054Z,5.10
2023-05-25T06:38:33.456Z,6.43
2023-05-25T06:41:03.744Z,6.93
2023-05-25T06:43:33.638Z,8.65
2023-05-25T06:46:02.316Z,4.53
2023-05-25T06:48:30.866Z,6.75
2023-05-25T06:50:59.295Z,4.85
2023-05-25T06:53:27.716Z,4.90
2023-05-25T06:55:56.147Z,5.55
2023-05-25T06:58:24.641Z,7.55
2023-05-25T07:00:54.546Z,6.03
2023-05-25T07:03:22.992Z,8.88
2023-05-25T07:05:51.446Z,7.00
2023-05-25T07:08:19.785Z,6.43
2023-05-25T07:10:50.186Z,5.68
2023-05-25T07:13:18.893Z,6.38
2023-05-25T07:15:47.580Z,4.55
2023-05-25T07:18:17.744Z,6.28
2023-05-25T07:20:46.722Z,5.78
2023-05-25T07:23:15.102Z,4.82
2023-05-25T07:25:43.667Z,5.53
2023-05-25T07:28:12.330Z,6.65
2023-05-25T07:30:42.034Z,5.80
2023-05-25T07:33:10.520Z,5.28
2023-05-25T07:35:40.531Z,6.43
2023-05-25T07:38:08.906Z,4.50
2023-05-25T07:40:37.250Z,4.40
2023-05-25T07:43:08.098Z,6.07
2023-05-25T07:45:36.864Z,6.10
2023-05-25T07:48:07.288Z,5.30
2023-05-25T07:50:35.708Z,7.47
2023-05-25T07:53:05.427Z,6.68
2023-05-25T07:55:33.891Z,6.88
2023-05-25T07:58:02.245Z,3.83
2023-05-25T08:00:31.051Z,3.72
2023-05-25T08:02:59.578Z,6.70
2023-05-25T08:05:28.357Z,3.95
2023-05-25T08:07:56.789Z,3.97
2023-05-25T08:10:31.568Z,4.00
2023-05-25T08:13:00.135Z,5.78
2023-05-25T08:15:28.651Z,5.30
2023-05-25T08:17:57.334Z,4.25
2023-05-25T08:20:26.319Z,4.50
2023-05-25T08:22:54.888Z,4.50
2023-05-25T08:25:23.470Z,5.63
2023-05-25T08:27:53.635Z,3.70
2023-05-25T08:30:22.529Z,3.90
2023-05-25T08:32:51.575Z,3.95
2023-05-25T08:35:20.200Z,4.47
2023-05-25T08:37:48.644Z,4.30
2023-05-25T08:40:18.060Z,4.70
2023-05-25T08:42:47.494Z,4.80
2023-05-25T08:45:33.465Z,5.10
2023-05-25T08:48:05.771Z,2.53
2023-05-25T08:50:35.643Z,7.30
2023-05-25T08:53:06.538Z,2.85
2023-05-25T08:55:39.154Z,3.03
2023-05-25T08:58:13.374Z,3.42
2023-05-25T09:00:50.178Z,2.42
2023-05-25T09:03:19.094Z,6.20
2023-05-25T09:05:47.795Z,2.72
2023-05-25T09:08:17.043Z,3.08
2023-05-25T09:10:45.818Z,2.40
2023-05-25T09:13:21.812Z,2.28
2023-05-25T09:15:53.334Z,4.32
2023-05-25T09:18:21.794Z,2.20
2023-05-25T09:20:50.568Z,5.00
2023-05-25T09:23:19.141Z,5.00
2023-05-25T09:25:50.895Z,3.13
2023-05-25T09:30:53.767Z,3.70
2023-05-25T09:33:22.469Z,2.67
2023-05-25T09:35:51.970Z,2.90
2023-05-25T09:38:20.861Z,3.40
2023-05-25T09:40:49.504Z,2.40
2023-05-25T09:43:28.903Z,3.03
2023-05-25T09:46:07.987Z,4.47
2023-05-25T09:48:37.124Z,1.73
2023-05-25T09:51:07.879Z,2.83
2023-05-25T09:53:36.370Z,1.95
2023-05-25T09:56:04.736Z,2.85
2023-05-25T09:58:33.189Z,1.75
2023-05-25T10:01:01.909Z,2.33
2023-05-25T10:03:31.735Z,4.32
2023-05-25T10:06:00.188Z,2.40
2023-05-25T10:08:29.347Z,2.22
2023-05-25T10:10:57.827Z,2.78
2023-05-25T10:13:31.557Z,1.73
2023-05-25T10:16:02.688Z,2.10
2023-05-25T10:18:37.390Z,2.03
2023-05-25T10:21:08.839Z,1.98
2023-05-25T10:23:47.609Z,2.70
2023-05-25T10:26:21.631Z,2.50
2023-05-25T10:28:52.523Z,2.08
2023-05-25T10:31:22.910Z,2.50
2023-05-25T10:33:53.270Z,1.98
2023-05-25T10:36:22.150Z,1.98
2023-05-25T10:38:53.011Z,3.20
2023-05-25T10:41:22.145Z,2.92
2023-05-25T10:43:51.602Z,2.00
2023-05-25T10:46:20.023Z,2.33
2023-05-25T10:48:50.390Z,2.15
2023-05-25T10:51:21.958Z,4.20
2023-05-25T10:54:02.317Z,2.22
2023-05-25T10:56:30.740Z,2.47
2023-05-25T10:58:59.220Z,2.22
2023-05-25T11:01:28.290Z,2.83
2023-05-25T11:03:58.455Z,2.28
2023-05-25T11:06:59.736Z,2.00
2023-05-25T11:09:31.708Z,1.77
2023-05-25T11:12:04.226Z,2.15
2023-05-25T11:14:34.015Z,1.88
2023-05-25T11:17:10.725Z,1.73
2023-05-25T11:19:44.544Z,2.00
2023-05-25T11:22:18.018Z,2.63
2023-05-25T11:24:48.167Z,2.42
2023-05-25T11:27:16.740Z,1.98
2023-05-25T11:29:45.035Z,2.35
2023-05-25T11:32:15.034Z,2.22
2023-05-25T11:34:46.937Z,2.90
2023-05-25T11:37:21.473Z,3.05
2023-05-25T11:39:53.597Z,2.58
2023-05-25T11:42:23.315Z,2.65
2023-05-25T11:44:52.142Z,1.88
2023-05-25T11:47:23.838Z,1.70
2023-05-25T11:49:52.360Z,2.28
2023-05-25T11:52:22.355Z,2.15
2023-05-25T11:54:53.484Z,2.10
2023-05-25T11:57:25.091Z,1.65
2023-05-25T11:59:54.953Z,2.55
2023-05-25T12:02:23.905Z,1.92
2023-05-25T12:04:56.647Z,1.88
2023-05-25T12:07:26.502Z,1.80
2023-05-25T12:10:06.728Z,2.22
2023-05-25T12:12:44.431Z,1.77
2023-05-25T12:15:14.365Z,2.83
2023-05-25T12:17:44.089Z,1.90
2023-05-25T12:20:15.473Z,1.90
2023-05-25T12:22:44.930Z,2.55
2023-05-25T12:25:16.212Z,1.63
2023-05-25T12:27:44.533Z,2.25
2023-05-25T12:30:13.101Z,2.08
2023-05-25T12:32:55.195Z,3.53
2023-05-25T12:35:23.986Z,2.38
2023-05-25T12:37:52.591Z,2.45
2023-05-25T12:40:24.851Z,2.03
2023-05-25T12:42:59.617Z,2.17
2023-05-25T12:45:28.271Z,2.20
2023-05-25T12:47:56.832Z,2.20
2023-05-25T12:50:25.262Z,2.22
2023-05-25T12:53:01.692Z,2.63
2023-05-25T12:55:33.237Z,2.85
2023-05-25T12:58:03.115Z,2.08
2023-05-25T13:00:33.826Z,2.40
2023-05-25T13:03:02.337Z,3.67
2023-05-25T13:05:33.055Z,1.90
2023-05-25T13:08:03.210Z,2.30
2023-05-25T13:10:34.339Z,2.15
2023-05-25T13:13:02.771Z,2.15
2023-05-25T13:15:31.211Z,2.13
2023-05-25T13:17:59.669Z,2.90
2023-05-25T13:20:29.935Z,3.38
2023-05-25T13:22:58.563Z,1.92
2023-05-25T13:25:27.915Z,2.30
2023-05-25T13:28:00.061Z,2.13
2023-05-25T13:30:28.797Z,2.40
2023-05-25T13:32:57.239Z,1.90
2023-05-25T13:35:42.145Z,2.78
2023-05-25T13:38:11.260Z,2.17
2023-05-25T13:40:39.616Z,2.25
2023-05-25T13:43:09.460Z,2.40
2023-05-25T13:45:39.844Z,4.57
2023-05-25T13:48:08.624Z,2.33
2023-05-25T13:50:37.071Z,1.92
2023-05-25T13:53:05.658Z,2.33
2023-05-25T13:55:35.177Z,2.30
2023-05-25T13:58:03.992Z,2.45
2023-05-25T14:00:34.104Z,2.45
2023-05-25T14:03:02.980Z,2.30
2023-05-25T14:05:31.727Z,2.20
2023-05-25T14:08:02.790Z,2.42
2023-05-25T14:10:31.159Z,2.22
2023-05-25T14:12:59.547Z,2.30
2023-05-25T14:15:27.898Z,2.40
2023-05-25T14:17:57.851Z,2.42
2023-05-25T14:20:26.746Z,2.55
2023-05-25T14:22:55.426Z,2.60
2023-05-25T14:25:23.749Z,4.55
2023-05-25T14:27:52.198Z,2.17
2023-05-25T14:30:21.223Z,1.80
2023-05-25T14:32:49.758Z,2.53
2023-05-25T14:35:19.638Z,2.35
2023-05-25T14:37:48.098Z,2.00
2023-05-25T14:40:16.503Z,2.63
2023-05-25T14:42:44.909Z,1.88
2023-05-25T14:45:15.889Z,2.00
2023-05-25T14:47:44.560Z,2.72
2023-05-25T14:50:13.067Z,2.53
2023-05-25T14:52:43.247Z,2.47
2023-05-25T14:55:12.062Z,1.98
2023-05-25T14:57:40.361Z,2.15
2023-05-25T15:00:10.079Z,2.10
2023-05-25T15:02:38.534Z,2.30
2023-05-25T15:05:07.726Z,2.05
2023-05-25T15:07:36.080Z,2.42
2023-05-25T15:10:06.330Z,1.95
2023-05-25T15:12:34.653Z,2.80
2023-05-25T15:15:03.081Z,2.47
2023-05-25T15:17:31.463Z,2.67
2023-05-25T15:19:59.975Z,2.28
2023-05-25T15:22:28.970Z,2.22
2023-05-25T15:24:57.291Z,2.45
2023-05-25T15:27:27.293Z,2.05
2023-05-25T15:29:55.631Z,2.10
2023-05-25T15:32:23.971Z,3.42
2023-05-25T15:34:52.307Z,2.53
2023-05-25T15:37:20.640Z,2.15
2023-05-25T15:39:48.954Z,2.15
2023-05-25T15:42:17.312Z,3.90
2023-05-25T15:44:47.229Z,2.45
2023-05-25T15:47:15.670Z,2.30
2023-05-25T15:49:44.039Z,2.28
2023-05-25T15:52:12.356Z,2.28
2023-05-25T15:54:40.722Z,2.50
2023-05-25T15:57:09.063Z,2.30
2023-05-25T15:59:37.413Z,2.83
2023-05-25T16:02:08.071Z,2.83
2023-05-25T16:04:36.697Z,2.47
2023-05-25T16:07:05.213Z,2.60
2023-05-25T16:09:33.527Z,2.60
2023-05-25T16:12:02.048Z,2.08
2023-05-25T16:14:30.605Z,2.40
2023-05-25T16:16:59.143Z,2.53
2023-05-25T16:19:29.081Z,2.28
2023-05-25T16:21:57.471Z,2.30
2023-05-25T16:24:27.104Z,2.38
2023-05-25T16:26:55.820Z,2.38
2023-05-25T16:29:24.172Z,2.33
2023-05-25T16:31:53.810Z,2.75
2023-05-25T16:34:22.149Z,1.92
2023-05-25T16:36:52.002Z,2.05
2023-05-25T16:39:20.352Z,2.17
2023-05-25T16:41:50.189Z,2.00
2023-05-25T16:44:19.233Z,2.35
2023-05-25T16:46:47.535Z,2.63
2023-05-25T16:49:15.949Z,2.40
2023-05-25T16:51:44.447Z,2.28
2023-05-25T16:54:16.563Z,2.22
2023-05-25T16:56:45.020Z,2.17
2023-05-25T16:59:13.379Z,1.90
2023-05-25T17:01:41.831Z,2.05
2023-05-25T17:04:10.308Z,2.53
2023-05-25T17:06:39.251Z,2.35
2023-05-25T17:09:08.810Z,2.20
2023-05-25T17:11:38.541Z,2.10
2023-05-25T17:14:07.068Z,3.42
2023-05-25T17:16:35.470Z,1.75
2023-05-25T17:19:03.809Z,3.85
2023-05-25T17:21:32.325Z,3.75
2023-05-25T17:24:00.817Z,2.00
2023-05-25T17:26:29.195Z,2.40
2023-05-25T17:29:00.931Z,2.80
2023-05-25T17:31:29.422Z,2.10
2023-05-25T17:33:57.875Z,1.98
2023-05-25T17:36:30.896Z,2.22
2023-05-25T17:38:59.270Z,2.72
2023-05-25T17:41:27.892Z,2.20
2023-05-25T17:43:56.274Z,2.15
2023-05-25T17:46:26.268Z,2.45
2023-05-25T17:48:54.873Z,2.50
2023-05-25T17:51:23.180Z,2.20
2023-05-25T17:53:51.547Z,2.42
2023-05-25T17:56:19.918Z,2.33
2023-05-25T17:58:48.531Z,3.35
2023-05-25T18:01:17.763Z,2.15
2023-05-25T18:03:48.001Z,1.83
2023-05-25T18:06:16.572Z,2.42
2023-05-25T18:08:44.950Z,3.33
2023-05-25T18:11:13.304Z,2.72
2023-05-25T18:13:42.012Z,1.92
2023-05-25T18:16:10.528Z,2.85
2023-05-25T18:18:38.965Z,4.65
2023-05-25T18:21:08.894Z,3.45
2023-05-25T18:23:37.272Z,2.42
2023-05-25T18:26:06.211Z,2.17
2023-05-25T18:28:34.627Z,2.42
2023-05-25T18:31:03.146Z,2.60
2023-05-25T18:33:31.589Z,1.85
2023-05-25T18:35:59.972Z,3.00
2023-05-25T18:38:29.748Z,2.25
2023-05-25T18:40:58.129Z,2.20
2023-05-25T18:43:27.071Z,4.50
2023-05-25T18:45:55.404Z,2.75
2023-05-25T18:48:24.274Z,4.13
2023-05-25T18:50:52.841Z,2.75
2023-05-25T18:53:21.158Z,2.40
2023-05-25T18:55:51.205Z,3.42
2023-05-25T18:58:19.615Z,2.53
2023-05-25T19:00:47.936Z,4.35
2023-05-25T19:03:16.464Z,2.90
2023-05-25T19:05:45.216Z,2.88
2023-05-25T19:08:13.675Z,2.65
2023-05-25T19:10:42.561Z,2.63
2023-05-25T19:13:12.387Z,3.47
2023-05-25T19:15:40.836Z,2.78
2023-05-25T19:18:09.149Z,2.83
2023-05-25T19:20:37.660Z,2.92
2023-05-25T19:23:06.508Z,2.55
2023-05-25T19:25:34.932Z,2.78
2023-05-25T19:28:03.383Z,5.28
2023-05-25T19:30:33.199Z,2.55
2023-05-25T19:33:01.602Z,2.80
2023-05-25T19:35:30.087Z,2.65
2023-05-25T19:37:59.805Z,2.47
2023-05-25T19:40:29.622Z,2.70
2023-05-25T19:42:57.966Z,2.50
2023-05-25T19:45:26.490Z,2.40
2023-05-25T19:47:56.473Z,3.38
2023-05-25T19:50:28.221Z,3.10
2023-05-25T19:52:56.476Z,2.65
2023-05-25T19:55:25.003Z,3.25
2023-05-25T19:57:53.562Z,2.53
2023-05-25T20:00:26.745Z,4.00
2023-05-25T20:02:57.056Z,2.45
2023-05-25T20:05:25.549Z,2.65
2023-05-25T20:07:54.579Z,3.97
2023-05-25T20:10:23.251Z,2.28
2023-05-25T20:12:51.575Z,2.78
2023-05-25T20:15:20.001Z,3.22
2023-05-25T20:17:48.336Z,7.50
2023-05-25T20:20:18.341Z,2.65
2023-05-25T20:22:46.693Z,2.35
2023-05-25T20:25:15.072Z,3.58
2023-05-25T20:27:43.438Z,2.35
2023-05-25T20:30:13.834Z,2.75
2023-05-25T20:32:44.034Z,3.53
2023-05-25T20:35:12.466Z,2.55
2023-05-25T20:37:42.600Z,6.25
2023-05-25T20:40:11.453Z,3.92
2023-05-25T20:42:39.727Z,2.53
2023-05-25T20:45:09.003Z,3.47
2023-05-25T20:47:37.494Z,4.72
2023-05-25T20:50:06.159Z,3.22
2023-05-25T20:52:34.902Z,2.47
2023-05-25T20:55:05.029Z,2.35
2023-05-25T20:57:33.414Z,5.45
2023-05-25T21:00:01.891Z,2.60
2023-05-25T21:02:30.284Z,4.57
2023-05-25T21:04:58.622Z,4.22
2023-05-25T21:07:27.006Z,3.72
2023-05-25T21:09:56.692Z,2.67
2023-05-25T21:12:26.553Z,2.42
2023-05-25T21:14:55.142Z,2.70
2023-05-25T21:17:23.545Z,2.10
2023-05-25T21:19:52.095Z,3.80
2023-05-25T21:22:20.458Z,2.00
2023-05-25T21:24:48.757Z,2.40
2023-05-25T21:27:17.111Z,4.03
2023-05-25T21:29:46.925Z,2.50
2023-05-25T21:32:15.331Z,3.53
2023-05-25T21:34:43.734Z,2.20
2023-05-25T21:37:12.103Z,2.75
2023-05-25T21:39:40.411Z,3.03
2023-05-25T21:42:08.879Z,3.78
2023-05-25T21:44:37.152Z,2.83
2023-05-25T21:47:07.276Z,2.55
2023-05-25T21:49:35.903Z,3.72
2023-05-25T21:52:04.254Z,2.38
2023-05-25T21:54:32.557Z,4.70
2023-05-25T21:57:02.218Z,3.53
2023-05-25T21:59:30.992Z,3.13
2023-05-25T22:01:59.613Z,2.22
2023-05-25T22:04:29.567Z,2.58
2023-05-25T22:06:57.982Z,2.50
2023-05-25T22:09:26.332Z,2.05
2023-05-25T22:11:54.958Z,5.35
2023-05-25T22:14:24.255Z,3.10
2023-05-25T22:16:52.874Z,2.20
2023-05-25T22:19:21.223Z,2.45
2023-05-25T22:21:51.087Z,2.92
2023-05-25T22:24:19.400Z,2.45
2023-05-25T22:26:47.926Z,2.60
2023-05-25T22:29:16.585Z,2.13
2023-05-25T22:31:45.068Z,3.00
2023-05-25T22:34:13.512Z,4.15
2023-05-25T22:36:41.911Z,5.30
2023-05-25T22:39:11.769Z,2.55
2023-05-25T22:41:40.073Z,2.95
2023-05-25T22:44:08.417Z,2.42
2023-05-25T22:46:36.820Z,5.13
2023-05-25T22:49:05.208Z,2.67
2023-05-25T22:51:33.580Z,2.45
2023-05-25T22:54:01.974Z,2.20
2023-05-25T22:56:31.748Z,2.75
2023-05-25T22:59:00.083Z,2.45
2023-05-25T23:01:28.537Z,4.40
2023-05-25T23:03:57.029Z,4.20
2023-05-25T23:06:25.464Z,2.70
2023-05-25T23:08:54.238Z,2.25
2023-05-25T23:11:22.545Z,2.83
2023-05-25T23:13:54.835Z,4.13
2023-05-25T23:16:23.880Z,2.72
2023-05-25T23:18:52.152Z,2.92
2023-05-25T23:21:20.607Z,2.17
2023-05-25T23:23:49.188Z,3.47
2023-05-25T23:26:17.549Z,3.58
2023-05-25T23:28:46.001Z,2.30
2023-05-25T23:31:15.863Z,3.38
2023-05-25T23:33:44.153Z,2.20
2023-05-25T23:36:12.858Z,2.15
2023-05-25T23:38:41.251Z,5.60
2023-05-25T23:41:09.645Z,2.25
2023-05-25T23:43:38.078Z,3.10
2023-05-25T23:46:06.438Z,3.45
2023-05-25T23:48:36.215Z,2.20
2023-05-25T23:51:07.606Z,4.22
2023-05-25T23:53:36.086Z,4.22
2023-05-25T23:56:04.630Z,3.13
2023-05-25T23:58:33.091Z,3.15
